Explorer Of The Seas — C6SE4 — position and weather

sailwx.info

Track history (hours):
 
Tides and Currents Weather Stations Pressure Air Temp Water Temp Dewpoint Dewpoint Depression Visibility Wind Speed Wind Dir Waves Ship Positions

Explorer Of The Seas

Operator: Royal Caribbean Cruises Ltd

Last reported at 2015-May-27 19:19 UTC. Time now 2015-May-30 16:17 UTC.
Position N 52°27' E 003°54'.

Length 311 m; draft 9.1 m.

Type: Ship. MMSI: 311316000.

Date/timePositionNaut miles runAvg speedWind from/ knotsBaromVisibWave heightAir tempDewpointWater temp
2015-May-27 19:19N 52°27' E 003°54'1620.5
2015-May-27 18:33N 52°11' E 003°54'1110.6
2015-May-27 17:33N 52°01' E 003°60'1111.4
2015-May-27 16:34N 51°55' E 004°15'7 6.8
2015-May-27 15:34N 51°54' E 004°26'2 1.9
2015-May-27 14:31N 51°54' E 004°29'0 0.0
2015-May-27 13:31N 51°54' E 004°29'0 0.0
2015-May-27 12:31N 51°54' E 004°29'0 0.0
2015-May-27 11:31N 51°54' E 004°29'0 0.0
2015-May-27 10:31N 51°54' E 004°29'0 0.0
2015-May-27 09:31N 51°54' E 004°29'0 0.0
2015-May-27 08:31N 51°54' E 004°29'0 0.2
2015-May-27 07:33N 51°54' E 004°29'9 8.8
2015-May-27 06:33N 51°55' E 004°15'1211.7
2015-May-27 05:33N 51°60' E 003°58'6018.5
2015-May-27 02:18N 51°38' E 002°27'1520.2
2015-May-27 01:34N 51°26' E 002°12'2019.7
2015-May-27 00:33N 51°10' E 001°55'2120.5
2015-May-26 23:34N 50°56' E 001°30'2020.4
2015-May-26 22:33N 50°39' E 001°13'2020.4
2015-May-26 21:34N 50°29' E 000°45'2320.6
2015-May-26 20:25N 50°22' E 000°10'2420.0
2015-May-26 19:13N 50°24' W 000°28'1420.7
2015-May-26 18:33N 50°31' W 000°46'1515.5
2015-May-26 17:33N 50°43' W 001°01'1312.9
2015-May-26 16:33N 50°50' W 001°19'6 2.6
2015-May-26 14:22N 50°54' W 001°25'0 0.0
2015-May-26 13:28N 50°54' W 001°25'0 0.0
2015-May-26 12:10N 50°54' W 001°25'0 0.0
2015-May-26 11:10N 50°54' W 001°25'0 0.0
2015-May-26 10:04N 50°54' W 001°25'0 0.0
2015-May-26 09:25N 50°54' W 001°25'0 0.0
2015-May-26 08:22N 50°54' W 001°25'0 0.0
2015-May-26 07:28N 50°54' W 001°25'0 0.0
2015-May-26 06:22N 50°54' W 001°25'0 0.0
2015-May-26 05:28N 50°54' W 001°25'0 0.0
2015-May-26 04:28N 50°54' W 001°25'5 6.0
2015-May-26 03:33N 50°50' W 001°19'1111.3
2015-May-26 02:33N 50°44' W 001°04'1513.4
2015-May-26 01:27N 50°31' W 000°52'4314.4
2015-May-25 22:30N 49°51' W 000°28'1415.0
2015-May-25 21:33N 49°38' W 000°21'1212.4
2015-May-25 20:33N 49°32' W 000°05'8 7.8
2015-May-25 19:33N 49°29' E 000°06'0 0.0
2015-May-25 18:33N 49°29' E 000°06'0 0.0
2015-May-25 17:33N 49°29' E 000°06'0 0.0
2015-May-25 16:33N 49°29' E 000°06'0 0.0
2015-May-25 15:33N 49°29' E 000°06'0 0.0
2015-May-25 14:33N 49°29' E 000°06'0 0.0
2015-May-25 13:33N 49°29' E 000°06'0 0.0
2015-May-25 12:30N 49°29' E 000°06'0 0.0
2015-May-25 11:33N 49°29' E 000°06'0 0.0
2015-May-25 10:33N 49°29' E 000°06'0 0.0
2015-May-25 09:33N 49°29' E 000°06'0 0.0
2015-May-25 08:33N 49°29' E 000°06'0 0.0
2015-May-25 07:33N 49°29' E 000°06'0 0.0
2015-May-25 06:33N 49°29' E 000°06'0 0.1
2015-May-25 05:33N 49°29' E 000°07'9 8.5
2015-May-25 04:33N 49°31' W 000°06'1211.6
2015-May-25 03:33N 49°38' W 000°20'1514.9
2015-May-25 02:33N 49°53' W 000°19'5315.7
2015-May-24 23:10N 50°35' E 000°33'1219.0
2015-May-24 22:33N 50°42' E 000°48'2519.7
2015-May-24 21:17N 50°58' E 001°17'1419.3
2015-May-24 20:34N 51°07' E 001°35'1818.0
2015-May-24 19:33N 51°21' E 001°54'1515.5
2015-May-24 18:33N 51°21' E 002°19'1616.4
2015-May-24 17:33N 51°23' E 002°45'1413.8
2015-May-24 16:33N 51°24' E 003°07'5 4.5
2015-May-24 15:25N 51°20' E 003°12'0 0.0
2015-May-24 14:31N 51°20' E 003°12'0 0.0
2015-May-24 13:22N 51°20' E 003°12'0 0.0
2015-May-24 12:28N 51°20' E 003°12'0 0.0
2015-May-24 11:31N 51°20' E 003°12'0 0.0
2015-May-24 10:19N 51°20' E 003°12'0 0.0
2015-May-24 09:31N 51°20' E 003°12'0 0.0
2015-May-24 08:31N 51°20' E 003°12'0 0.0
2015-May-24 07:31N 51°20' E 003°12'0 0.0
2015-May-24 06:25N 51°20' E 003°12'7 8.6
2015-May-24 05:33N 51°24' E 003°02'1515.1
2015-May-24 04:34N 51°22' E 002°39'1313.1
2015-May-24 03:34N 51°19' E 002°19'1515.2
2015-May-24 02:34N 51°12' E 001°57'1514.9
2015-May-24 01:34N 51°03' E 001°38'1717.0
2015-May-24 00:34N 50°48' E 001°24'1716.7
2015-May-23 23:34N 50°35' E 001°08'1717.3
2015-May-23 22:33N 50°28' E 000°43'2017.2
2015-May-23 21:23N 50°22' E 000°13'1417.1
2015-May-23 20:34N 50°19' W 000°09'1717.2
2015-May-23 19:34N 50°21' W 000°36'1616.3
2015-May-23 18:34N 50°32' W 000°55'1414.0
2015-May-23 17:33N 50°44' W 001°04'1110.9
2015-May-23 16:33N 50°50' W 001°19'6 5.3
2015-May-23 15:31N 50°54' W 001°25'0 0.0
2015-May-23 14:31N 50°54' W 001°25'0 0.0
2015-May-23 13:31N 50°54' W 001°25'0 0.0
2015-May-23 12:28N 50°54' W 001°25'0 0.0
2015-May-23 11:31N 50°54' W 001°25'0 0.0
2015-May-23 10:28N 50°54' W 001°25'0 0.0
2015-May-23 09:31N 50°54' W 001°25'0 0.0
2015-May-23 08:31N 50°54' W 001°25'0 0.0
2015-May-23 07:31N 50°54' W 001°25'0 0.0
2015-May-23 06:13N 50°54' W 001°25'0 0.0
2015-May-23 05:22N 50°54' W 001°25'0 0.0
2015-May-23 04:22N 50°54' W 001°25'6 7.6
2015-May-23 03:33N 50°49' W 001°18'1212.0
2015-May-23 02:33N 50°43' W 001°02'1413.7
2015-May-23 01:32N 50°31' W 000°52'5312.6
2015-May-22 21:18N 49°41' W 000°21'911.8
2015-May-22 20:33N 49°34' W 000°15'1413.5
2015-May-22 19:33N 49°29' E 000°05'1 1.2
2015-May-22 18:33N 49°29' E 000°06'0 0.0
2015-May-22 17:32N 49°29' E 000°06'0 0.0
2015-May-22 16:33N 49°29' E 000°06'0 0.0
2015-May-22 15:33N 49°29' E 000°06'0 0.0
2015-May-22 14:32N 49°29' E 000°06'0 0.0
2015-May-22 13:33N 49°29' E 000°06'0 0.0
2015-May-22 12:32N 49°29' E 000°06'0 0.0
2015-May-22 11:33N 49°29' E 000°06'0 0.0
2015-May-22 10:33N 49°29' E 000°06'0 0.0
2015-May-22 09:33N 49°29' E 000°06'0 0.0
2015-May-22 08:33N 49°29' E 000°06'0 0.0
2015-May-22 07:33N 49°29' E 000°06'0 0.0
2015-May-22 06:33N 49°29' E 000°06'0 0.0
2015-May-22 05:32N 49°29' E 000°06'1 0.8
2015-May-22 04:33N 49°29' E 000°05'1111.2
2015-May-22 03:33N 49°32' W 000°11'10 9.9
2015-May-22 02:33N 49°36' W 000°25'9 9.4
2015-May-22 01:33N 49°39' W 000°39'17 8.6
2015-May-21 23:33N 49°43' W 001°05'4 4.2
2015-May-21 22:30N 49°46' W 001°10'5 5.6
2015-May-21 21:33N 49°49' W 001°17'38 2.3
2015-May-21 05:07N 50°21' W 000°46'1017.3
2015-May-21 04:33N 50°24' W 000°32'4118.2
2015-May-21 02:17N 50°36' E 000°31'1418.6
2015-May-21 01:33N 50°43' E 000°49'2117.8
2015-May-21 00:21N 50°57' E 001°15'1315.9
2015-May-20 23:33N 51°05' E 001°30'2019.8
2015-May-20 22:33N 51°19' E 001°52'2121.0
2015-May-20 21:34N 51°36' E 002°11'4318.8
2015-May-20 19:17N 52°03' E 003°06'1418.7
2015-May-20 18:33N 52°04' E 003°28'1717.1
2015-May-20 17:34N 52°03' E 003°56'1111.2
2015-May-20 16:33N 51°57' E 004°11'8 8.1
2015-May-20 15:33N 51°54' E 004°23'4 3.7
2015-May-20 14:34N 51°54' E 004°29'0 0.2
2015-May-20 13:33N 51°54' E 004°29'0 0.0
2015-May-20 12:33N 51°54' E 004°29'0 0.0
2015-May-20 11:33N 51°54' E 004°29'0 0.0
2015-May-20 10:33N 51°54' E 004°29'0 0.0
2015-May-20 09:33N 51°54' E 004°29'0 0.0
2015-May-20 08:33N 51°54' E 004°29'0 0.0
2015-May-20 07:33N 51°54' E 004°29'0 0.0
2015-May-20 06:33N 51°54' E 004°29'0 0.0
2015-May-20 05:33N 51°54' E 004°29'0 0.1
2015-May-20 04:33N 51°54' E 004°29'5 5.1
2015-May-20 03:33N 51°54' E 004°21'9 9.0
2015-May-20 02:33N 51°58' E 004°08'1212.2
2015-May-20 01:33N 52°02' E 003°49'1313.0
2015-May-20 00:33N 52°15' E 003°47'1515.2
2015-May-19 23:33N 52°30' E 003°52'1918.8
2015-May-19 22:33N 52°48' E 003°57'1817.6
2015-May-19 21:33N 53°04' E 004°11'1717.1
2015-May-19 20:33N 53°17' E 004°28'1716.7
2015-May-19 19:34N 53°33' E 004°38'1716.5
2015-May-19 18:33N 53°49' E 004°47'1716.8
2015-May-19 17:33N 54°05' E 004°52'31216.2
2015-May-18 22:18N 58°33' E 009°41'1216.1
2015-May-18 21:33N 58°40' E 009°60'1616.3
2015-May-18 20:33N 58°52' E 010°20'1515.2
2015-May-18 19:33N 59°05' E 010°35'1717.1
2015-May-18 18:33N 59°22' E 010°34'3014.1
2015-May-18 16:24N 59°53' E 010°39'3 0.3
2015-May-18 06:16N 59°54' E 010°44'16 9.1
2015-May-18 04:33N 59°39' E 010°37'1515.0
2015-May-18 03:33N 59°24' E 010°35'1515.2
2015-May-18 02:33N 59°09' E 010°39'1211.6
2015-May-18 01:33N 58°58' E 010°31'1714.6
2015-May-18 00:24N 58°44' E 010°12'  
Track history (hours):
 
Tides and Currents Weather Stations Pressure Air Temp Water Temp Dewpoint Dewpoint Depression Visibility Wind Speed Wind Dir Waves Ship Positions

Explorer Of The Seas

Operator: Royal Caribbean Cruises Ltd

Last reported at 2015-May-27 19:19 UTC. Time now 2015-May-30 16:17 UTC.
Position N 52°27' E 003°54'.

Length 311 m; draft 9.1 m.

Type: Ship. MMSI: 311316000.

Date/timePositionNaut miles runAvg speedWind from/ knotsBaromVisibWave heightAir tempDewpointWater temp
2015-May-27 19:19N 52°27' E 003°54'1620.5
2015-May-27 18:33N 52°11' E 003°54'1110.6
2015-May-27 17:33N 52°01' E 003°60'1111.4
2015-May-27 16:34N 51°55' E 004°15'7 6.8
2015-May-27 15:34N 51°54' E 004°26'2 1.9
2015-May-27 14:31N 51°54' E 004°29'0 0.0
2015-May-27 13:31N 51°54' E 004°29'0 0.0
2015-May-27 12:31N 51°54' E 004°29'0 0.0
2015-May-27 11:31N 51°54' E 004°29'0 0.0
2015-May-27 10:31N 51°54' E 004°29'0 0.0
2015-May-27 09:31N 51°54' E 004°29'0 0.0
2015-May-27 08:31N 51°54' E 004°29'0 0.2
2015-May-27 07:33N 51°54' E 004°29'9 8.8
2015-May-27 06:33N 51°55' E 004°15'1211.7
2015-May-27 05:33N 51°60' E 003°58'6018.5
2015-May-27 02:18N 51°38' E 002°27'1520.2
2015-May-27 01:34N 51°26' E 002°12'2019.7
2015-May-27 00:33N 51°10' E 001°55'2120.5
2015-May-26 23:34N 50°56' E 001°30'2020.4
2015-May-26 22:33N 50°39' E 001°13'2020.4
2015-May-26 21:34N 50°29' E 000°45'2320.6
2015-May-26 20:25N 50°22' E 000°10'2420.0
2015-May-26 19:13N 50°24' W 000°28'1420.7
2015-May-26 18:33N 50°31' W 000°46'1515.5
2015-May-26 17:33N 50°43' W 001°01'1312.9
2015-May-26 16:33N 50°50' W 001°19'6 2.6
2015-May-26 14:22N 50°54' W 001°25'0 0.0
2015-May-26 13:28N 50°54' W 001°25'0 0.0
2015-May-26 12:10N 50°54' W 001°25'0 0.0
2015-May-26 11:10N 50°54' W 001°25'0 0.0
2015-May-26 10:04N 50°54' W 001°25'0 0.0
2015-May-26 09:25N 50°54' W 001°25'0 0.0
2015-May-26 08:22N 50°54' W 001°25'0 0.0
2015-May-26 07:28N 50°54' W 001°25'0 0.0
2015-May-26 06:22N 50°54' W 001°25'0 0.0
2015-May-26 05:28N 50°54' W 001°25'0 0.0
2015-May-26 04:28N 50°54' W 001°25'5 6.0
2015-May-26 03:33N 50°50' W 001°19'1111.3
2015-May-26 02:33N 50°44' W 001°04'1513.4
2015-May-26 01:27N 50°31' W 000°52'4314.4
2015-May-25 22:30N 49°51' W 000°28'1415.0
2015-May-25 21:33N 49°38' W 000°21'1212.4
2015-May-25 20:33N 49°32' W 000°05'8 7.8
2015-May-25 19:33N 49°29' E 000°06'0 0.0
2015-May-25 18:33N 49°29' E 000°06'0 0.0
2015-May-25 17:33N 49°29' E 000°06'0 0.0
2015-May-25 16:33N 49°29' E 000°06'0 0.0
2015-May-25 15:33N 49°29' E 000°06'0 0.0
2015-May-25 14:33N 49°29' E 000°06'0 0.0
2015-May-25 13:33N 49°29' E 000°06'0 0.0
2015-May-25 12:30N 49°29' E 000°06'0 0.0
2015-May-25 11:33N 49°29' E 000°06'0 0.0
2015-May-25 10:33N 49°29' E 000°06'0 0.0
2015-May-25 09:33N 49°29' E 000°06'0 0.0
2015-May-25 08:33N 49°29' E 000°06'0 0.0
2015-May-25 07:33N 49°29' E 000°06'0 0.0
2015-May-25 06:33N 49°29' E 000°06'0 0.1
2015-May-25 05:33N 49°29' E 000°07'9 8.5
2015-May-25 04:33N 49°31' W 000°06'1211.6
2015-May-25 03:33N 49°38' W 000°20'1514.9
2015-May-25 02:33N 49°53' W 000°19'5315.7
2015-May-24 23:10N 50°35' E 000°33'1219.0
2015-May-24 22:33N 50°42' E 000°48'2519.7
2015-May-24 21:17N 50°58' E 001°17'1419.3
2015-May-24 20:34N 51°07' E 001°35'1818.0
2015-May-24 19:33N 51°21' E 001°54'1515.5
2015-May-24 18:33N 51°21' E 002°19'1616.4
2015-May-24 17:33N 51°23' E 002°45'1413.8
2015-May-24 16:33N 51°24' E 003°07'5 4.5
2015-May-24 15:25N 51°20' E 003°12'0 0.0
2015-May-24 14:31N 51°20' E 003°12'0 0.0
2015-May-24 13:22N 51°20' E 003°12'0 0.0
2015-May-24 12:28N 51°20' E 003°12'0 0.0
2015-May-24 11:31N 51°20' E 003°12'0 0.0
2015-May-24 10:19N 51°20' E 003°12'0 0.0
2015-May-24 09:31N 51°20' E 003°12'0 0.0
2015-May-24 08:31N 51°20' E 003°12'0 0.0
2015-May-24 07:31N 51°20' E 003°12'0 0.0
2015-May-24 06:25N 51°20' E 003°12'7 8.6
2015-May-24 05:33N 51°24' E 003°02'1515.1
2015-May-24 04:34N 51°22' E 002°39'1313.1
2015-May-24 03:34N 51°19' E 002°19'1515.2
2015-May-24 02:34N 51°12' E 001°57'1514.9
2015-May-24 01:34N 51°03' E 001°38'1717.0
2015-May-24 00:34N 50°48' E 001°24'1716.7
2015-May-23 23:34N 50°35' E 001°08'1717.3
2015-May-23 22:33N 50°28' E 000°43'2017.2
2015-May-23 21:23N 50°22' E 000°13'1417.1
2015-May-23 20:34N 50°19' W 000°09'1717.2
2015-May-23 19:34N 50°21' W 000°36'1616.3
2015-May-23 18:34N 50°32' W 000°55'1414.0
2015-May-23 17:33N 50°44' W 001°04'1110.9
2015-May-23 16:33N 50°50' W 001°19'6 5.3
2015-May-23 15:31N 50°54' W 001°25'0 0.0
2015-May-23 14:31N 50°54' W 001°25'0 0.0
2015-May-23 13:31N 50°54' W 001°25'0 0.0
2015-May-23 12:28N 50°54' W 001°25'0 0.0
2015-May-23 11:31N 50°54' W 001°25'0 0.0
2015-May-23 10:28N 50°54' W 001°25'0 0.0
2015-May-23 09:31N 50°54' W 001°25'0 0.0
2015-May-23 08:31N 50°54' W 001°25'0 0.0
2015-May-23 07:31N 50°54' W 001°25'0 0.0
2015-May-23 06:13N 50°54' W 001°25'0 0.0
2015-May-23 05:22N 50°54' W 001°25'0 0.0
2015-May-23 04:22N 50°54' W 001°25'6 7.6
2015-May-23 03:33N 50°49' W 001°18'1212.0
2015-May-23 02:33N 50°43' W 001°02'1413.7
2015-May-23 01:32N 50°31' W 000°52'5312.6
2015-May-22 21:18N 49°41' W 000°21'911.8
2015-May-22 20:33N 49°34' W 000°15'1413.5
2015-May-22 19:33N 49°29' E 000°05'1 1.2
2015-May-22 18:33N 49°29' E 000°06'0 0.0
2015-May-22 17:32N 49°29' E 000°06'0 0.0
2015-May-22 16:33N 49°29' E 000°06'0 0.0
2015-May-22 15:33N 49°29' E 000°06'0 0.0
2015-May-22 14:32N 49°29' E 000°06'0 0.0
2015-May-22 13:33N 49°29' E 000°06'0 0.0
2015-May-22 12:32N 49°29' E 000°06'0 0.0
2015-May-22 11:33N 49°29' E 000°06'0 0.0
2015-May-22 10:33N 49°29' E 000°06'0 0.0
2015-May-22 09:33N 49°29' E 000°06'0 0.0
2015-May-22 08:33N 49°29' E 000°06'0 0.0
2015-May-22 07:33N 49°29' E 000°06'0 0.0
2015-May-22 06:33N 49°29' E 000°06'0 0.0
2015-May-22 05:32N 49°29' E 000°06'1 0.8
2015-May-22 04:33N 49°29' E 000°05'1111.2
2015-May-22 03:33N 49°32' W 000°11'10 9.9
2015-May-22 02:33N 49°36' W 000°25'9 9.4
2015-May-22 01:33N 49°39' W 000°39'17 8.6
2015-May-21 23:33N 49°43' W 001°05'4 4.2
2015-May-21 22:30N 49°46' W 001°10'5 5.6
2015-May-21 21:33N 49°49' W 001°17'38 2.3
2015-May-21 05:07N 50°21' W 000°46'1017.3
2015-May-21 04:33N 50°24' W 000°32'4118.2
2015-May-21 02:17N 50°36' E 000°31'1418.6
2015-May-21 01:33N 50°43' E 000°49'2117.8
2015-May-21 00:21N 50°57' E 001°15'1315.9
2015-May-20 23:33N 51°05' E 001°30'2019.8
2015-May-20 22:33N 51°19' E 001°52'2121.0
2015-May-20 21:34N 51°36' E 002°11'4318.8
2015-May-20 19:17N 52°03' E 003°06'1418.7
2015-May-20 18:33N 52°04' E 003°28'1717.1
2015-May-20 17:34N 52°03' E 003°56'1111.2
2015-May-20 16:33N 51°57' E 004°11'8 8.1
2015-May-20 15:33N 51°54' E 004°23'4 3.7
2015-May-20 14:34N 51°54' E 004°29'0 0.2
2015-May-20 13:33N 51°54' E 004°29'0 0.0
2015-May-20 12:33N 51°54' E 004°29'0 0.0
2015-May-20 11:33N 51°54' E 004°29'0 0.0
2015-May-20 10:33N 51°54' E 004°29'0 0.0
2015-May-20 09:33N 51°54' E 004°29'0 0.0
2015-May-20 08:33N 51°54' E 004°29'0 0.0
2015-May-20 07:33N 51°54' E 004°29'0 0.0
2015-May-20 06:33N 51°54' E 004°29'0 0.0
2015-May-20 05:33N 51°54' E 004°29'0 0.1
2015-May-20 04:33N 51°54' E 004°29'5 5.1
2015-May-20 03:33N 51°54' E 004°21'9 9.0
2015-May-20 02:33N 51°58' E 004°08'1212.2
2015-May-20 01:33N 52°02' E 003°49'1313.0
2015-May-20 00:33N 52°15' E 003°47'1515.2
2015-May-19 23:33N 52°30' E 003°52'1918.8
2015-May-19 22:33N 52°48' E 003°57'1817.6
2015-May-19 21:33N 53°04' E 004°11'1717.1
2015-May-19 20:33N 53°17' E 004°28'1716.7
2015-May-19 19:34N 53°33' E 004°38'1716.5
2015-May-19 18:33N 53°49' E 004°47'1716.8
2015-May-19 17:33N 54°05' E 004°52'31216.2
2015-May-18 22:18N 58°33' E 009°41'1216.1
2015-May-18 21:33N 58°40' E 009°60'1616.3
2015-May-18 20:33N 58°52' E 010°20'1515.2
2015-May-18 19:33N 59°05' E 010°35'1717.1
2015-May-18 18:33N 59°22' E 010°34'3014.1
2015-May-18 16:24N 59°53' E 010°39'3 0.3
2015-May-18 06:16N 59°54' E 010°44'16 9.1
2015-May-18 04:33N 59°39' E 010°37'1515.0
2015-May-18 03:33N 59°24' E 010°35'1515.2
2015-May-18 02:33N 59°09' E 010°39'1211.6
2015-May-18 01:33N 58°58' E 010°31'1714.6
2015-May-18 00:24N 58°44' E 010°12'  

Dump ship's entire track history